Base Marambio Centro Met. Antartico, Antarctica
Current Conditions -  °F | °C
As of 12:00 PM on Saturday 25 Oct 2014 (Local Time) from SAWH Reporting Station
Clear Clear  
Wind Chill: 50°   Ceiling: Unl
Heat Index: 50°   Visibility: 6mi
Dew Point: 37°   Wind: 0mph
Humidity: 62%   Direction: NA
Pressure: 29.23"   Gusts: NA
Location:  64.23°S, 56.72°W
Report Text: SAWH 251200Z 00000KT CAVOK 10/03 Q0990
Loading
Personal Weather Stations






























Interactive Weather Map
Tropical Storm Tracking
New forecast layout! Learn more

10-Day Weather Forecast

Advertisements
Track Severe Weather on mobile